Chalfont St Giles, United Kingdom
Current Conditions -  °F | °C
As of 6:50 AM on Saturday 20 Dec 2014 (Local Time) from EGWU Reporting Station
Broken Clouds Broken Clouds  
Wind Chill: 38°   Ceiling: 5000
Heat Index: 43°   Visibility: 6mi
Dew Point: 36°   Wind: 8mph
Humidity: 76%   Direction: 240°WSW
Pressure: 30.24"   Gusts: NA
Location:  51.63°N, 0.57°W
Report Text: EGWU 200650Z 24007KT 9999 SCT038 BKN050 06/02 Q1024 BLU NOSIG
Loading
Personal Weather Stations






























Interactive Weather Map New forecast layout! Learn more

10-Day Weather Forecast

Advertisements
Track Severe Weather on mobile